createdAt,value
2022-11-29T00:01:07.846Z,25.83
2022-11-29T00:03:34.504Z,22.35
2022-11-29T00:06:09.714Z,22.45
2022-11-29T00:08:36.619Z,20.23
2022-11-29T00:11:08.094Z,23.10
2022-11-29T00:13:34.903Z,22.08
2022-11-29T00:16:04.804Z,21.27
2022-11-29T00:18:31.428Z,30.58
2022-11-29T00:20:57.813Z,21.83
2022-11-29T00:23:24.190Z,21.88
2022-11-29T00:25:50.486Z,21.83
2022-11-29T00:28:17.120Z,20.00
2022-11-29T00:30:43.472Z,22.63
2022-11-29T00:33:09.782Z,21.57
2022-11-29T00:35:38.724Z,20.83
2022-11-29T00:38:05.024Z,22.45
2022-11-29T00:40:31.423Z,24.30
2022-11-29T00:42:59.465Z,21.50
2022-11-29T00:45:30.635Z,21.87
2022-11-29T00:47:56.992Z,22.08
2022-11-29T00:50:23.420Z,21.85
2022-11-29T00:52:49.819Z,23.40
2022-11-29T00:55:17.812Z,23.00
2022-11-29T00:57:44.206Z,20.83
2022-11-29T01:00:11.011Z,23.08
2022-11-29T01:02:37.370Z,23.85
2022-11-29T01:05:03.887Z,25.52
2022-11-29T01:07:30.207Z,23.95
2022-11-29T01:09:56.538Z,20.07
2022-11-29T01:12:22.845Z,21.25
2022-11-29T01:14:49.130Z,22.60
2022-11-29T01:17:15.461Z,23.80
2022-11-29T01:19:46.439Z,23.33
2022-11-29T01:22:17.782Z,20.83
2022-11-29T01:24:46.214Z,23.92
2022-11-29T01:27:12.721Z,22.35
2022-11-29T01:29:39.151Z,22.05
2022-11-29T01:32:05.498Z,22.15
2022-11-29T01:34:31.926Z,21.83
2022-11-29T01:36:58.734Z,21.17
2022-11-29T01:39:25.108Z,21.90
2022-11-29T01:41:51.413Z,20.95
2022-11-29T01:44:17.625Z,19.85
2022-11-29T01:46:46.244Z,19.73
2022-11-29T01:49:20.866Z,18.98
2022-11-29T01:52:02.820Z,18.42
2022-11-29T01:54:30.570Z,18.45
2022-11-29T01:56:59.010Z,18.35
2022-11-29T01:59:29.266Z,19.27
2022-11-29T02:02:05.081Z,19.67
2022-11-29T02:04:36.589Z,18.25
2022-11-29T02:07:03.688Z,19.90
2022-11-29T02:09:30.089Z,18.25
2022-11-29T02:12:15.381Z,17.83
2022-11-29T02:14:50.510Z,19.75
2022-11-29T02:17:35.498Z,20.75
2022-11-29T02:20:16.929Z,17.70
2022-11-29T02:22:56.267Z,19.42
2022-11-29T02:26:03.041Z,18.87
2022-11-29T02:28:46.130Z,18.90
2022-11-29T02:31:43.551Z,18.10
2022-11-29T02:34:28.282Z,17.20
2022-11-29T02:37:16.913Z,17.33
2022-11-29T02:40:12.774Z,14.10
2022-11-29T02:42:56.560Z,18.23
2022-11-29T02:45:32.541Z,16.83
2022-11-29T02:48:44.486Z,17.00
2022-11-29T02:51:56.732Z,14.80
2022-11-29T02:55:00.537Z,16.90
2022-11-29T02:57:43.251Z,16.67
2022-11-29T03:00:15.974Z,16.35
2022-11-29T03:02:47.116Z,15.75
2022-11-29T03:05:35.261Z,16.60
2022-11-29T03:08:27.984Z,14.87
2022-11-29T03:11:13.835Z,16.20
2022-11-29T03:14:01.566Z,16.25
2022-11-29T03:16:59.566Z,13.75
2022-11-29T03:19:47.243Z,15.95
2022-11-29T03:22:20.353Z,15.80
2022-11-29T03:24:49.746Z,15.32
2022-11-29T03:27:45.279Z,14.52
2022-11-29T03:30:14.282Z,15.60
2022-11-29T03:33:08.833Z,14.73
2022-11-29T03:36:01.956Z,16.30
2022-11-29T03:38:38.434Z,17.17
2022-11-29T03:41:16.307Z,16.10
2022-11-29T03:43:57.358Z,16.63
2022-11-29T03:46:43.493Z,16.92
2022-11-29T03:49:19.018Z,16.37
2022-11-29T03:52:04.024Z,16.60
2022-11-29T03:55:06.028Z,16.50
2022-11-29T03:58:04.643Z,14.98
2022-11-29T04:01:00.299Z,17.05
2022-11-29T04:04:03.510Z,17.20
2022-11-29T04:06:45.246Z,15.90
2022-11-29T04:10:02.959Z,14.23
2022-11-29T04:13:26.732Z,11.85
2022-11-29T04:16:26.639Z,13.77
2022-11-29T04:19:34.502Z,12.20
2022-11-29T04:22:31.441Z,11.95
2022-11-29T04:25:36.729Z,12.52
2022-11-29T04:28:18.887Z,13.27
2022-11-29T04:31:04.948Z,13.30
2022-11-29T04:33:46.582Z,14.13
2022-11-29T04:36:34.389Z,13.88
2022-11-29T04:39:23.426Z,13.48
2022-11-29T04:42:02.022Z,12.18
2022-11-29T04:44:53.785Z,15.70
2022-11-29T04:47:40.270Z,12.83
2022-11-29T04:50:06.811Z,11.00
2022-11-29T04:53:11.227Z,12.45
2022-11-29T04:56:10.292Z,13.20
2022-11-29T04:58:46.071Z,11.95
2022-11-29T05:01:33.606Z,15.97
2022-11-29T05:04:19.103Z,14.10
2022-11-29T05:07:03.958Z,13.13
2022-11-29T05:10:00.383Z,14.10
2022-11-29T05:12:38.558Z,13.60
2022-11-29T05:15:40.600Z,14.40
2022-11-29T05:18:44.674Z,13.65
2022-11-29T05:21:36.863Z,14.18
2022-11-29T05:24:47.069Z,13.05
2022-11-29T05:27:39.099Z,11.20
2022-11-29T05:30:14.204Z,12.17
2022-11-29T05:33:02.127Z,13.50
2022-11-29T05:35:50.005Z,14.93
2022-11-29T05:39:01.291Z,12.30
2022-11-29T05:41:52.254Z,12.63
2022-11-29T05:44:32.417Z,15.07
2022-11-29T05:47:02.777Z,12.82
2022-11-29T05:49:49.793Z,13.07
2022-11-29T05:52:34.854Z,12.23
2022-11-29T05:55:22.658Z,14.45
2022-11-29T05:58:04.322Z,12.87
2022-11-29T06:00:43.446Z,11.73
2022-11-29T06:03:21.774Z,12.88
2022-11-29T06:05:56.566Z,11.52
2022-11-29T06:08:43.163Z,9.88
2022-11-29T06:11:17.387Z,9.40
2022-11-29T06:14:08.356Z,8.63
2022-11-29T06:17:25.785Z,9.30
2022-11-29T06:20:14.798Z,7.88
2022-11-29T06:23:02.739Z,8.43
2022-11-29T06:25:43.218Z,8.50
2022-11-29T06:28:15.552Z,8.70
2022-11-29T06:30:55.335Z,8.65
2022-11-29T06:33:31.243Z,6.72
2022-11-29T06:36:10.069Z,7.90
2022-11-29T06:38:36.858Z,7.07
2022-11-29T06:41:03.893Z,8.15
2022-11-29T06:43:32.195Z,9.07
2022-11-29T06:46:45.317Z,7.95
2022-11-29T06:49:20.697Z,8.63
2022-11-29T06:52:04.986Z,7.27
2022-11-29T06:54:50.200Z,7.32
2022-11-29T06:57:43.201Z,8.45
2022-11-29T07:00:19.243Z,8.25
2022-11-29T07:02:59.601Z,9.52
2022-11-29T07:05:35.454Z,10.50
2022-11-29T07:08:12.168Z,12.25
2022-11-29T07:10:40.526Z,10.57
2022-11-29T07:13:07.074Z,11.43
2022-11-29T07:15:34.045Z,13.13
2022-11-29T07:18:17.521Z,11.50
2022-11-29T07:21:08.538Z,11.98
2022-11-29T07:23:47.114Z,11.80
2022-11-29T07:26:43.357Z,12.50
2022-11-29T07:29:44.769Z,10.55
2022-11-29T07:32:29.467Z,10.40
2022-11-29T07:35:07.716Z,10.25
2022-11-29T07:37:57.755Z,10.13
2022-11-29T07:40:37.175Z,10.73
2022-11-29T07:43:28.368Z,9.40
2022-11-29T07:45:57.049Z,9.10
2022-11-29T07:48:23.423Z,8.60
2022-11-29T07:50:49.840Z,8.75
2022-11-29T07:53:18.432Z,10.13
2022-11-29T07:55:45.529Z,9.00
2022-11-29T07:58:13.048Z,6.97
2022-11-29T08:00:42.780Z,7.95
2022-11-29T08:03:10.590Z,7.20
2022-11-29T08:05:38.351Z,7.07
2022-11-29T08:08:05.847Z,6.63
2022-11-29T08:10:32.836Z,6.63
2022-11-29T08:13:01.689Z,7.15
2022-11-29T08:15:32.042Z,6.47
2022-11-29T08:18:00.684Z,4.93
2022-11-29T08:20:27.106Z,5.63
2022-11-29T08:22:54.884Z,4.80
2022-11-29T08:25:21.186Z,6.03
2022-11-29T08:27:47.542Z,6.07
2022-11-29T08:30:13.992Z,5.90
2022-11-29T08:32:41.472Z,6.28
2022-11-29T08:35:09.928Z,5.77
2022-11-29T08:37:37.395Z,5.60
2022-11-29T08:40:05.725Z,5.85
2022-11-29T08:42:32.060Z,5.15
2022-11-29T08:44:58.497Z,6.40
2022-11-29T08:47:36.921Z,5.00
2022-11-29T08:50:12.577Z,5.82
2022-11-29T08:53:00.698Z,4.70
2022-11-29T08:55:31.695Z,5.50
2022-11-29T09:01:23.920Z,5.97
2022-11-29T09:03:59.402Z,6.13
2022-11-29T09:06:27.832Z,5.93
2022-11-29T09:08:56.183Z,6.32
2022-11-29T09:11:24.293Z,6.68
2022-11-29T09:13:53.927Z,6.07
2022-11-29T09:16:23.598Z,6.68
2022-11-29T09:18:51.791Z,6.25
2022-11-29T09:21:18.899Z,6.22
2022-11-29T09:23:46.230Z,6.93
2022-11-29T09:26:18.789Z,6.93
2022-11-29T09:28:46.696Z,6.10
2022-11-29T09:31:15.644Z,5.75
2022-11-29T09:33:42.440Z,6.55
2022-11-29T09:36:11.009Z,6.78
2022-11-29T09:38:38.637Z,6.63
2022-11-29T09:41:28.509Z,6.47
2022-11-29T09:44:00.660Z,5.10
2022-11-29T09:46:35.791Z,5.85
2022-11-29T09:49:08.184Z,6.32
2022-11-29T09:51:44.035Z,5.73
2022-11-29T09:54:16.716Z,6.18
2022-11-29T09:56:49.890Z,5.60
2022-11-29T09:59:24.710Z,6.07
2022-11-29T10:02:03.858Z,6.47
2022-11-29T10:04:36.798Z,6.00
2022-11-29T10:07:18.621Z,5.15
2022-11-29T10:09:51.123Z,5.63
2022-11-29T10:12:31.598Z,6.22
2022-11-29T10:15:05.427Z,6.05
2022-11-29T10:17:34.957Z,5.60
2022-11-29T10:20:09.119Z,6.10
2022-11-29T10:23:02.781Z,5.45
2022-11-29T10:25:35.802Z,4.30
2022-11-29T10:28:06.169Z,6.18
2022-11-29T10:30:35.913Z,5.40
2022-11-29T10:33:02.733Z,5.32
2022-11-29T10:35:29.634Z,6.20
2022-11-29T10:38:29.725Z,6.07
2022-11-29T10:40:50.963Z,6.35
2022-11-29T10:43:17.324Z,5.77
2022-11-29T10:45:50.558Z,6.20
2022-11-29T10:48:19.864Z,6.85
2022-11-29T10:50:48.646Z,5.43
2022-11-29T10:53:18.217Z,5.72
2022-11-29T10:55:47.406Z,6.40
2022-11-29T10:58:28.267Z,6.13
2022-11-29T11:00:57.368Z,6.10
2022-11-29T11:03:52.800Z,5.80
2022-11-29T11:06:22.689Z,5.75
2022-11-29T11:08:53.462Z,6.93
2022-11-29T11:11:29.326Z,6.30
2022-11-29T11:14:00.624Z,7.00
2022-11-29T11:16:31.684Z,7.32
2022-11-29T11:19:28.048Z,6.65
2022-11-29T11:21:56.476Z,6.67
2022-11-29T11:24:35.857Z,5.80
2022-11-29T11:27:02.465Z,5.90
2022-11-29T11:29:37.601Z,5.35
2022-11-29T11:32:07.324Z,5.35
2022-11-29T11:34:36.152Z,6.10
2022-11-29T11:37:14.736Z,6.43
2022-11-29T11:39:47.063Z,6.25
2022-11-29T11:42:39.822Z,5.93
2022-11-29T11:45:09.581Z,6.00
2022-11-29T11:47:43.135Z,6.90
2022-11-29T11:50:28.330Z,6.30
2022-11-29T11:52:58.094Z,6.25
2022-11-29T11:55:32.399Z,5.78
2022-11-29T11:58:04.643Z,5.80
2022-11-29T12:01:03.892Z,6.17
2022-11-29T12:03:57.516Z,5.70
2022-11-29T12:06:38.991Z,5.47
2022-11-29T12:09:18.515Z,5.50
2022-11-29T12:12:10.003Z,6.20
2022-11-29T12:14:47.412Z,6.43
2022-11-29T12:17:29.486Z,5.38
2022-11-29T12:20:12.935Z,6.03
2022-11-29T12:22:48.689Z,5.75
2022-11-29T12:25:31.784Z,5.88
2022-11-29T12:27:58.666Z,5.67
2022-11-29T12:30:25.786Z,6.03
2022-11-29T12:33:05.517Z,5.97
2022-11-29T12:35:50.007Z,6.43
2022-11-29T12:38:38.637Z,6.55
2022-11-29T12:41:42.639Z,6.73
2022-11-29T12:44:42.273Z,5.47
2022-11-29T12:47:35.188Z,6.38
2022-11-29T12:50:01.154Z,6.00
2022-11-29T12:52:47.049Z,5.72
2022-11-29T12:55:31.864Z,6.60
2022-11-29T12:58:10.481Z,5.57
2022-11-29T13:00:46.523Z,5.50
2022-11-29T13:03:33.916Z,6.05
2022-11-29T13:06:12.587Z,5.28
2022-11-29T13:09:01.954Z,5.63
2022-11-29T13:11:39.317Z,6.78
2022-11-29T13:14:43.199Z,5.60
2022-11-29T13:17:31.667Z,5.88
2022-11-29T13:20:19.044Z,6.00
2022-11-29T13:22:52.862Z,5.13
2022-11-29T13:25:32.377Z,5.45
2022-11-29T13:28:04.373Z,4.82
2022-11-29T13:30:31.630Z,6.15
2022-11-29T13:33:16.491Z,5.50
2022-11-29T13:36:08.568Z,5.67
2022-11-29T13:38:43.393Z,5.30
2022-11-29T13:41:27.187Z,5.93
2022-11-29T13:44:09.679Z,5.13
2022-11-29T13:46:46.723Z,6.32
2022-11-29T13:49:50.866Z,4.80
2022-11-29T13:52:43.131Z,4.90
2022-11-29T13:55:12.434Z,5.75
2022-11-29T13:58:18.823Z,4.85
2022-11-29T14:00:45.419Z,4.30
2022-11-29T14:03:23.896Z,4.87
2022-11-29T14:06:09.983Z,5.82
2022-11-29T14:09:17.242Z,5.20
2022-11-29T14:11:49.095Z,4.85
2022-11-29T14:14:16.682Z,4.40
2022-11-29T14:16:42.939Z,5.07
2022-11-29T14:19:09.861Z,4.00
2022-11-29T14:22:07.130Z,4.38
2022-11-29T14:24:38.862Z,5.07
2022-11-29T14:27:14.278Z,4.55
2022-11-29T14:29:50.032Z,5.30
2022-11-29T14:32:24.499Z,5.25
2022-11-29T14:34:57.398Z,5.35
2022-11-29T14:37:32.907Z,5.38
2022-11-29T14:40:04.091Z,4.32
2022-11-29T14:42:31.300Z,4.57
2022-11-29T14:45:01.338Z,4.63
2022-11-29T14:47:32.827Z,6.03
2022-11-29T14:50:05.381Z,4.90
2022-11-29T14:52:35.785Z,4.97
2022-11-29T14:55:38.906Z,4.87
2022-11-29T14:58:16.436Z,4.97
2022-11-29T15:00:48.454Z,4.25
2022-11-29T15:03:52.541Z,4.50
2022-11-29T15:06:50.127Z,5.38
2022-11-29T15:09:24.968Z,3.67
2022-11-29T15:12:24.018Z,3.35
2022-11-29T15:15:09.821Z,3.97
2022-11-29T15:18:40.704Z,2.67
2022-11-29T15:21:33.756Z,3.45
2022-11-29T15:24:14.365Z,3.57
2022-11-29T15:27:40.188Z,3.83
2022-11-29T15:31:03.222Z,2.63
2022-11-29T15:34:25.343Z,2.50
2022-11-29T15:36:52.907Z,3.22
2022-11-29T15:39:31.549Z,5.03
2022-11-29T15:42:32.729Z,4.32
2022-11-29T15:45:18.164Z,5.55
2022-11-29T15:48:23.237Z,7.45
2022-11-29T15:51:13.072Z,3.95
2022-11-29T15:54:13.329Z,4.07
2022-11-29T15:56:47.098Z,4.05
2022-11-29T15:59:21.491Z,4.05
2022-11-29T16:01:59.259Z,4.20
2022-11-29T16:04:27.235Z,4.28
2022-11-29T16:06:58.153Z,4.70
2022-11-29T16:09:42.935Z,4.03
2022-11-29T16:12:13.984Z,4.28
2022-11-29T16:15:01.148Z,3.67
2022-11-29T16:17:32.485Z,4.50
2022-11-29T16:20:21.316Z,6.67
2022-11-29T16:23:05.185Z,6.63
2022-11-29T16:25:37.361Z,6.43
2022-11-29T16:28:06.542Z,7.05
2022-11-29T16:30:33.203Z,8.07
2022-11-29T16:33:01.054Z,8.00
2022-11-29T16:35:29.977Z,9.77
2022-11-29T16:37:56.772Z,10.60
2022-11-29T16:40:27.205Z,8.70
2022-11-29T16:43:07.011Z,9.77
2022-11-29T16:45:33.879Z,9.50
2022-11-29T16:48:01.524Z,10.98
2022-11-29T16:50:29.891Z,8.85
2022-11-29T16:53:17.613Z,8.98
2022-11-29T16:55:47.409Z,9.07
2022-11-29T16:58:13.792Z,8.17
2022-11-29T17:00:40.209Z,8.70
2022-11-29T17:03:06.520Z,9.75
2022-11-29T17:05:32.886Z,9.45
2022-11-29T17:08:00.211Z,8.57
2022-11-29T17:10:27.403Z,9.17
2022-11-29T17:12:53.753Z,8.68
2022-11-29T17:15:20.059Z,9.57
2022-11-29T17:17:46.454Z,8.40
2022-11-29T17:20:13.362Z,10.07
2022-11-29T17:22:40.136Z,9.13
2022-11-29T17:25:08.484Z,9.77
2022-11-29T17:27:35.721Z,9.38
2022-11-29T17:30:03.363Z,9.13
2022-11-29T17:32:30.025Z,9.00
2022-11-29T17:34:56.355Z,9.40
2022-11-29T17:37:22.690Z,8.50
2022-11-29T17:39:49.209Z,8.18
2022-11-29T17:42:15.612Z,9.20
2022-11-29T17:44:42.534Z,9.73
2022-11-29T17:47:10.502Z,9.27
2022-11-29T17:49:37.134Z,9.73
2022-11-29T17:52:03.439Z,9.23
2022-11-29T17:54:33.076Z,8.68
2022-11-29T17:57:00.669Z,7.78
2022-11-29T17:59:27.116Z,9.10
2022-11-29T18:01:53.512Z,8.43
2022-11-29T18:04:19.899Z,8.48
2022-11-29T18:06:49.709Z,8.98
2022-11-29T18:09:17.754Z,9.73
2022-11-29T18:11:48.660Z,8.43
2022-11-29T18:14:20.552Z,8.27
2022-11-29T18:16:47.089Z,8.13
2022-11-29T18:19:17.036Z,8.27
2022-11-29T18:21:45.681Z,8.43
2022-11-29T18:24:15.135Z,8.63
2022-11-29T18:26:43.053Z,9.40
2022-11-29T18:29:09.656Z,7.90
2022-11-29T18:31:41.530Z,9.30
2022-11-29T18:34:09.983Z,8.55
2022-11-29T18:36:44.912Z,8.40
2022-11-29T18:39:23.450Z,8.43
2022-11-29T18:41:50.371Z,9.02
2022-11-29T18:44:22.503Z,8.77
2022-11-29T18:46:50.618Z,9.27
2022-11-29T18:49:21.367Z,8.67
2022-11-29T18:51:49.485Z,9.07
2022-11-29T18:54:17.976Z,8.43
2022-11-29T18:56:45.530Z,8.80
2022-11-29T18:59:16.457Z,7.97
2022-11-29T19:01:45.044Z,8.33
2022-11-29T19:04:14.632Z,8.60
2022-11-29T19:06:41.918Z,9.07
2022-11-29T19:09:13.196Z,7.43
2022-11-29T19:11:39.855Z,8.30
2022-11-29T19:14:12.544Z,7.93
2022-11-29T19:16:42.069Z,8.40
2022-11-29T19:19:08.759Z,8.32
2022-11-29T19:21:35.485Z,8.10
2022-11-29T19:24:04.181Z,7.40
2022-11-29T19:26:32.401Z,7.20
2022-11-29T19:29:00.736Z,7.75
2022-11-29T19:31:27.927Z,7.03
2022-11-29T19:33:55.025Z,7.45
2022-11-29T19:36:24.142Z,7.05
2022-11-29T19:38:54.517Z,7.50
2022-11-29T19:41:30.163Z,8.02
2022-11-29T19:43:58.765Z,7.82
2022-11-29T19:46:27.956Z,6.60
2022-11-29T19:48:56.379Z,7.07
2022-11-29T19:51:24.375Z,7.90
2022-11-29T19:53:55.503Z,7.43
2022-11-29T19:56:24.501Z,7.65
2022-11-29T19:58:51.701Z,7.65
2022-11-29T20:01:24.797Z,7.18
2022-11-29T20:03:52.396Z,7.33
2022-11-29T20:06:19.310Z,7.38
2022-11-29T20:08:46.385Z,7.28
2022-11-29T20:11:22.314Z,6.65
2022-11-29T20:13:59.347Z,6.60
2022-11-29T20:16:26.797Z,7.30
2022-11-29T20:18:54.052Z,5.70
2022-11-29T20:21:27.008Z,5.90
2022-11-29T20:24:01.912Z,7.13
2022-11-29T20:26:29.835Z,6.53
2022-11-29T20:28:56.181Z,6.87
2022-11-29T20:31:23.422Z,6.22
2022-11-29T20:33:52.384Z,6.40
2022-11-29T20:36:39.838Z,6.07
2022-11-29T20:39:42.738Z,6.50
2022-11-29T20:42:29.421Z,5.90
2022-11-29T20:45:06.678Z,6.05
2022-11-29T20:47:38.830Z,5.78
2022-11-29T20:50:05.802Z,6.05
2022-11-29T20:52:45.156Z,5.93
2022-11-29T20:55:11.957Z,5.70
2022-11-29T20:57:38.422Z,5.65
2022-11-29T21:00:08.695Z,6.40
2022-11-29T21:02:35.522Z,7.20
2022-11-29T21:05:02.012Z,6.75
2022-11-29T21:07:29.176Z,6.70
2022-11-29T21:10:00.917Z,6.68
2022-11-29T21:12:29.072Z,5.97
2022-11-29T21:14:55.778Z,5.88
2022-11-29T21:17:22.470Z,5.35
2022-11-29T21:19:49.101Z,5.20
2022-11-29T21:22:37.133Z,5.00
2022-11-29T21:25:22.278Z,5.25
2022-11-29T21:27:49.152Z,5.38
2022-11-29T21:30:22.206Z,5.65
2022-11-29T21:32:49.186Z,5.27
2022-11-29T21:35:16.633Z,5.43
2022-11-29T21:37:44.127Z,5.50
2022-11-29T21:40:12.147Z,5.75
2022-11-29T21:42:38.472Z,5.30
2022-11-29T21:45:09.310Z,6.13
2022-11-29T21:47:41.102Z,5.45
2022-11-29T21:50:08.568Z,5.88
2022-11-29T21:52:34.874Z,5.53
2022-11-29T21:55:01.217Z,5.80
2022-11-29T21:57:29.075Z,6.03
2022-11-29T21:59:55.482Z,5.65
2022-11-29T22:02:21.937Z,4.72
2022-11-29T22:04:48.679Z,5.32
2022-11-29T22:07:15.227Z,6.05
2022-11-29T22:09:41.702Z,5.07
2022-11-29T22:12:31.978Z,5.60
2022-11-29T22:14:54.359Z,5.55
2022-11-29T22:17:20.803Z,6.20
2022-11-29T22:19:47.214Z,5.32
2022-11-29T22:22:13.555Z,5.40
2022-11-29T22:24:39.909Z,5.80
2022-11-29T22:27:06.281Z,5.88
2022-11-29T22:29:32.680Z,5.45
2022-11-29T22:31:59.484Z,4.93
2022-11-29T22:34:27.430Z,4.87
2022-11-29T22:36:54.284Z,5.43
2022-11-29T22:39:20.895Z,5.93
2022-11-29T22:41:53.704Z,5.68
2022-11-29T22:44:20.909Z,6.18
2022-11-29T22:46:47.348Z,7.27
2022-11-29T22:49:13.700Z,7.15
2022-11-29T22:51:40.302Z,9.57
2022-11-29T22:54:09.403Z,8.15
2022-11-29T22:56:41.493Z,8.73
2022-11-29T22:59:08.735Z,7.90
2022-11-29T23:01:41.257Z,9.15
2022-11-29T23:04:09.584Z,8.90
2022-11-29T23:06:38.818Z,7.60
2022-11-29T23:09:15.048Z,8.60
2022-11-29T23:11:43.272Z,8.90
2022-11-29T23:14:09.768Z,7.35
2022-11-29T23:16:37.948Z,8.82
2022-11-29T23:19:04.492Z,8.55
2022-11-29T23:21:35.004Z,7.70
2022-11-29T23:24:01.888Z,9.50
2022-11-29T23:26:29.431Z,8.90
2022-11-29T23:28:56.623Z,9.40
2022-11-29T23:31:23.638Z,9.52
2022-11-29T23:33:50.221Z,9.52
2022-11-29T23:36:16.738Z,9.53
2022-11-29T23:38:43.723Z,9.80
2022-11-29T23:41:11.445Z,9.23
2022-11-29T23:43:40.296Z,10.50
2022-11-29T23:46:09.028Z,10.45
2022-11-29T23:48:35.354Z,9.27
2022-11-29T23:51:01.770Z,9.40
2022-11-29T23:53:28.261Z,10.13
2022-11-29T23:56:02.514Z,9.40
2022-11-29T23:58:30.040Z,9.95
